createdAt,value
2018-06-20T00:00:21.709Z,10.33
2018-06-20T00:02:53.223Z,8.67
2018-06-20T00:05:25.713Z,10.60
2018-06-20T00:07:57.991Z,7.80
2018-06-20T00:10:33.241Z,9.00
2018-06-20T00:13:08.730Z,10.86
2018-06-20T00:15:40.196Z,10.33
2018-06-20T00:18:11.796Z,10.00
2018-06-20T00:20:46.635Z,10.17
2018-06-20T00:23:20.688Z,10.86
2018-06-20T00:25:54.689Z,9.43
2018-06-20T00:28:27.017Z,10.60
2018-06-20T00:31:00.387Z,8.33
2018-06-20T00:33:33.664Z,9.83
2018-06-20T00:36:05.387Z,12.00
2018-06-20T00:38:37.834Z,12.00
2018-06-20T00:41:11.130Z,8.33
2018-06-20T00:43:43.203Z,8.00
2018-06-20T00:46:16.544Z,8.83
2018-06-20T00:48:50.356Z,9.20
2018-06-20T00:51:21.696Z,12.00
2018-06-20T00:53:53.252Z,11.00
2018-06-20T00:56:27.640Z,11.00
2018-06-20T00:59:01.688Z,10.71
2018-06-20T01:01:33.191Z,9.00
2018-06-20T01:04:05.580Z,11.60
2018-06-20T01:06:37.896Z,13.40
2018-06-20T01:09:10.731Z,11.33
2018-06-20T01:11:42.372Z,11.00
2018-06-20T01:14:15.058Z,11.00
2018-06-20T01:16:46.519Z,9.00
2018-06-20T01:19:18.761Z,13.80
2018-06-20T01:21:50.254Z,12.00
2018-06-20T01:24:21.654Z,11.67
2018-06-20T01:26:53.977Z,15.00
2018-06-20T01:29:25.519Z,12.00
2018-06-20T01:31:57.725Z,13.25
2018-06-20T01:34:29.270Z,13.00
2018-06-20T01:37:00.873Z,12.67
2018-06-20T01:39:32.382Z,9.33
2018-06-20T01:42:03.781Z,15.33
2018-06-20T01:44:36.076Z,14.75
2018-06-20T01:47:08.175Z,13.33
2018-06-20T01:49:40.339Z,12.67
2018-06-20T01:52:11.547Z,11.33
2018-06-20T01:54:45.401Z,13.00
2018-06-20T01:57:17.002Z,12.33
2018-06-20T01:59:50.141Z,12.40
2018-06-20T02:02:21.572Z,13.00
2018-06-20T02:04:54.669Z,13.50
2018-06-20T02:07:27.017Z,14.75
2018-06-20T02:09:58.490Z,14.33
2018-06-20T02:12:33.548Z,11.33
2018-06-20T02:15:06.017Z,12.33
2018-06-20T02:17:37.225Z,16.00
2018-06-20T02:20:09.323Z,15.00
2018-06-20T02:22:41.359Z,15.00
2018-06-20T02:25:14.364Z,12.00
2018-06-20T02:27:46.848Z,12.00
2018-06-20T02:30:20.592Z,15.33
2018-06-20T02:32:52.206Z,13.33
2018-06-20T02:35:26.326Z,17.67
2018-06-20T02:37:57.540Z,15.00
2018-06-20T02:40:31.607Z,12.00
2018-06-20T02:43:03.202Z,15.67
2018-06-20T02:45:36.623Z,11.67
2018-06-20T02:48:10.147Z,14.50
2018-06-20T02:50:42.281Z,13.00
2018-06-20T02:53:13.759Z,14.00
2018-06-20T02:55:45.173Z,13.00
2018-06-20T02:58:16.522Z,16.00
2018-06-20T03:00:48.702Z,15.00
2018-06-20T03:03:21.043Z,15.33
2018-06-20T03:05:54.961Z,14.00
2018-06-20T03:08:29.211Z,12.00
2018-06-20T03:11:04.041Z,15.00
2018-06-20T03:13:36.357Z,15.33
2018-06-20T03:16:07.604Z,16.00
2018-06-20T03:18:40.280Z,14.67
2018-06-20T03:21:11.743Z,16.33
2018-06-20T03:23:43.193Z,15.00
2018-06-20T03:26:14.657Z,15.33
2018-06-20T03:28:46.216Z,15.33
2018-06-20T03:31:20.258Z,15.33
2018-06-20T03:33:53.212Z,15.50
2018-06-20T03:36:26.567Z,17.33
2018-06-20T03:38:58.320Z,15.33
2018-06-20T03:41:29.745Z,14.67
2018-06-20T03:44:08.129Z,15.33
2018-06-20T03:46:40.233Z,13.00
2018-06-20T03:49:11.596Z,13.33
2018-06-20T03:51:43.004Z,15.67
2018-06-20T03:54:15.096Z,15.33
2018-06-20T03:56:46.458Z,15.00
2018-06-20T03:59:19.332Z,14.67
2018-06-20T04:01:51.369Z,14.00
2018-06-20T04:04:24.386Z,12.40
2018-06-20T04:07:00.594Z,17.00
2018-06-20T04:09:31.777Z,16.00
2018-06-20T04:12:03.936Z,19.00
2018-06-20T04:14:35.331Z,16.00
2018-06-20T04:17:10.626Z,14.75
2018-06-20T04:19:58.103Z,15.00
2018-06-20T04:22:29.539Z,16.67
2018-06-20T04:25:01.962Z,17.67
2018-06-20T04:27:34.235Z,16.33
2018-06-20T04:30:06.911Z,15.33
2018-06-20T04:32:39.345Z,18.00
2018-06-20T04:35:11.695Z,17.00
2018-06-20T04:37:44.141Z,19.00
2018-06-20T04:40:15.624Z,19.00
2018-06-20T04:42:47.091Z,15.33
2018-06-20T04:45:19.803Z,14.00
2018-06-20T04:47:52.432Z,16.00
2018-06-20T04:50:27.782Z,16.00
2018-06-20T04:52:59.840Z,15.67
2018-06-20T04:55:32.079Z,15.33
2018-06-20T04:58:04.517Z,18.00
2018-06-20T05:00:39.380Z,16.00
2018-06-20T05:03:10.863Z,14.67
2018-06-20T05:05:43.267Z,15.67
2018-06-20T05:08:16.267Z,16.50
2018-06-20T05:10:48.063Z,12.00
2018-06-20T05:13:20.264Z,17.00
2018-06-20T05:15:53.196Z,15.67
2018-06-20T05:18:25.467Z,17.67
2018-06-20T05:20:57.512Z,15.33
2018-06-20T05:23:28.929Z,16.33
2018-06-20T05:26:00.395Z,14.00
2018-06-20T05:28:31.850Z,15.33
2018-06-20T05:31:03.360Z,15.33
2018-06-20T05:33:36.694Z,17.67
2018-06-20T05:36:09.085Z,16.25
2018-06-20T05:38:40.412Z,20.67
2018-06-20T05:41:11.956Z,16.33
2018-06-20T05:43:44.373Z,19.33
2018-06-20T05:46:15.588Z,19.33
2018-06-20T05:48:47.041Z,17.67
2018-06-20T05:51:19.415Z,18.00
2018-06-20T05:53:50.900Z,15.00
2018-06-20T05:56:22.583Z,17.33
2018-06-20T05:58:54.032Z,16.67
2018-06-20T06:01:26.392Z,14.00
2018-06-20T06:03:57.883Z,18.67
2018-06-20T06:06:29.478Z,17.00
2018-06-20T06:09:01.894Z,18.33
2018-06-20T06:11:33.911Z,14.00
2018-06-20T06:14:06.820Z,15.33
2018-06-20T06:16:38.887Z,19.00
2018-06-20T06:19:12.683Z,18.00
2018-06-20T06:21:46.016Z,17.67
2018-06-20T06:24:17.800Z,19.33
2018-06-20T06:26:49.249Z,17.00
2018-06-20T06:29:22.636Z,17.67
2018-06-20T06:31:56.422Z,16.33
2018-06-20T06:34:29.858Z,16.33
2018-06-20T06:37:03.239Z,16.00
2018-06-20T06:39:35.363Z,18.00
2018-06-20T06:42:09.775Z,16.00
2018-06-20T06:44:41.308Z,15.33
2018-06-20T06:47:13.629Z,16.00
2018-06-20T06:49:45.126Z,15.00
2018-06-20T06:52:16.831Z,20.00
2018-06-20T06:54:48.282Z,14.00
2018-06-20T06:57:19.740Z,15.33
2018-06-20T06:59:51.434Z,13.67
2018-06-20T07:02:23.794Z,16.00
2018-06-20T07:04:55.353Z,12.00
2018-06-20T07:07:28.294Z,13.25
2018-06-20T07:09:59.755Z,12.67
2018-06-20T07:12:32.060Z,12.00
2018-06-20T07:15:08.604Z,12.00
2018-06-20T07:17:43.448Z,12.71
2018-06-20T07:20:15.868Z,11.50
2018-06-20T07:22:48.284Z,12.00
2018-06-20T07:25:23.192Z,11.57
2018-06-20T07:27:57.903Z,9.86
2018-06-20T07:30:30.822Z,14.25
2018-06-20T07:33:02.389Z,11.67
2018-06-20T07:35:34.925Z,12.00
2018-06-20T07:40:46.162Z,12.33
2018-06-20T07:43:21.067Z,9.86
2018-06-20T07:45:54.285Z,10.60
2018-06-20T07:48:25.849Z,11.67
2018-06-20T07:50:58.735Z,11.40
2018-06-20T07:53:32.029Z,8.67
2018-06-20T07:56:05.369Z,9.80
2018-06-20T07:58:45.597Z,12.00
2018-06-20T08:01:33.849Z,10.60
2018-06-20T08:04:12.713Z,9.67
2018-06-20T08:06:52.082Z,9.33
2018-06-20T08:09:30.367Z,8.00
2018-06-20T08:12:10.234Z,9.00
2018-06-20T08:14:49.651Z,9.17
2018-06-20T08:17:28.357Z,9.17
2018-06-20T08:20:02.310Z,8.00
2018-06-20T08:22:36.376Z,9.57
2018-06-20T08:25:09.628Z,9.00
2018-06-20T08:27:43.555Z,9.50
2018-06-20T08:30:18.772Z,8.83
2018-06-20T08:32:51.193Z,10.00
2018-06-20T08:35:33.312Z,8.83
2018-06-20T08:38:07.638Z,9.00
2018-06-20T08:40:41.684Z,8.00
2018-06-20T08:43:14.771Z,8.17
2018-06-20T08:45:48.196Z,8.17
2018-06-20T08:48:21.702Z,10.00
2018-06-20T08:50:57.077Z,9.50
2018-06-20T08:53:31.706Z,9.50
2018-06-20T08:56:06.126Z,9.00
2018-06-20T08:58:39.457Z,8.00
2018-06-20T09:01:14.249Z,6.83
2018-06-20T09:03:48.376Z,9.00
2018-06-20T09:06:29.129Z,7.17
2018-06-20T09:09:08.746Z,7.67
2018-06-20T09:18:16.672Z,9.00
2018-06-20T09:20:49.959Z,8.33
2018-06-20T09:23:23.248Z,9.00
2018-06-20T09:26:01.634Z,9.57
2018-06-20T09:28:35.023Z,9.00
2018-06-20T09:31:08.444Z,9.33
2018-06-20T09:33:41.735Z,8.00
2018-06-20T09:36:15.034Z,8.17
2018-06-20T09:38:48.302Z,7.17
2018-06-20T09:41:21.825Z,8.00
2018-06-20T09:43:58.395Z,7.33
2018-06-20T09:46:31.541Z,10.50
2018-06-20T09:49:04.857Z,7.83
2018-06-20T09:51:38.268Z,8.50
2018-06-20T09:54:12.425Z,7.67
2018-06-20T09:56:47.208Z,8.00
2018-06-20T09:59:28.222Z,7.17
2018-06-20T10:02:07.484Z,8.67
2018-06-20T10:04:48.345Z,9.40
2018-06-20T10:07:30.444Z,8.33
2018-06-20T10:10:08.760Z,9.00
2018-06-20T10:12:48.160Z,8.50
2018-06-20T10:15:22.681Z,8.00
2018-06-20T10:17:57.716Z,7.83
2018-06-20T10:20:32.529Z,8.00
2018-06-20T10:23:07.365Z,8.33
2018-06-20T10:25:41.886Z,7.33
2018-06-20T10:28:15.165Z,6.00
2018-06-20T10:30:49.356Z,6.83
2018-06-20T10:33:23.741Z,4.33
2018-06-20T10:35:59.243Z,7.00
2018-06-20T10:38:33.552Z,9.00
2018-06-20T10:41:08.758Z,7.33
2018-06-20T10:43:42.053Z,8.50
2018-06-20T10:46:21.852Z,8.33
2018-06-20T10:48:57.500Z,9.00
2018-06-20T10:51:33.611Z,8.33
2018-06-20T10:54:09.420Z,7.33
2018-06-20T10:56:47.744Z,7.00
2018-06-20T10:59:26.220Z,8.50
2018-06-20T11:02:05.629Z,8.17
2018-06-20T11:04:45.464Z,9.43
2018-06-20T11:07:24.238Z,9.33
2018-06-20T11:10:02.287Z,9.20
2018-06-20T11:12:42.278Z,7.50
2018-06-20T11:15:17.688Z,7.83
2018-06-20T11:17:53.194Z,9.33
2018-06-20T11:20:35.077Z,7.17
2018-06-20T11:23:13.407Z,7.67
2018-06-20T11:25:46.970Z,9.00
2018-06-20T11:28:22.261Z,6.50
2018-06-20T11:30:57.537Z,6.67
2018-06-20T11:33:30.776Z,6.83
2018-06-20T11:36:04.478Z,7.67
2018-06-20T11:38:38.404Z,7.17
2018-06-20T11:41:11.789Z,9.67
2018-06-20T11:43:46.176Z,6.00
2018-06-20T11:46:24.489Z,7.83
2018-06-20T11:48:58.580Z,7.00
2018-06-20T11:51:34.121Z,7.00
2018-06-20T11:54:15.532Z,7.00
2018-06-20T11:56:48.612Z,6.83
2018-06-20T11:59:27.265Z,7.00
2018-06-20T12:02:08.563Z,6.67
2018-06-20T12:04:48.802Z,8.00
2018-06-20T12:07:29.852Z,7.17
2018-06-20T12:10:15.001Z,7.83
2018-06-20T12:12:58.399Z,7.00
2018-06-20T12:15:39.198Z,9.20
2018-06-20T12:18:20.219Z,9.71
2018-06-20T12:20:58.266Z,8.17
2018-06-20T12:23:36.962Z,7.17
2018-06-20T12:26:38.487Z,9.17
2018-06-20T12:29:16.853Z,8.60
2018-06-20T12:31:55.761Z,7.00
2018-06-20T12:34:52.280Z,8.00
2018-06-20T12:37:32.794Z,8.33
2018-06-20T12:40:13.718Z,9.00
2018-06-20T12:42:52.911Z,9.71
2018-06-20T12:45:27.205Z,9.00
2018-06-20T12:48:04.207Z,8.83
2018-06-20T12:50:43.964Z,10.71
2018-06-20T12:53:16.594Z,10.80
2018-06-20T12:55:49.793Z,16.00
2018-06-20T12:58:21.364Z,11.67
2018-06-20T13:00:55.114Z,17.00
2018-06-20T13:03:30.691Z,16.67
2018-06-20T13:06:05.457Z,17.67
2018-06-20T13:08:42.524Z,17.33
2018-06-20T13:11:15.416Z,18.67
2018-06-20T13:13:46.243Z,19.00
2018-06-20T13:16:19.727Z,21.67
2018-06-20T13:19:00.551Z,19.33
2018-06-20T13:21:33.513Z,16.67
2018-06-20T13:24:07.522Z,18.00
2018-06-20T13:26:39.151Z,15.67
2018-06-20T13:29:15.306Z,13.00
2018-06-20T13:31:53.625Z,10.67
2018-06-20T13:37:12.767Z,12.00
2018-06-20T13:39:50.152Z,11.33
2018-06-20T13:42:27.817Z,11.00
2018-06-20T13:45:04.549Z,8.20
2018-06-20T13:47:42.783Z,7.17
2018-06-20T13:50:16.945Z,7.17
2018-06-20T13:52:50.708Z,5.67
2018-06-20T13:55:25.644Z,7.17
2018-06-20T13:58:01.434Z,6.83
2018-06-20T14:00:36.956Z,7.83
2018-06-20T14:03:13.936Z,7.00
2018-06-20T14:05:48.526Z,5.83
2018-06-20T14:08:23.508Z,7.67
2018-06-20T14:10:57.802Z,6.17
2018-06-20T14:13:32.044Z,6.00
2018-06-20T14:16:05.368Z,6.83
2018-06-20T14:18:39.419Z,6.00
2018-06-20T14:21:20.408Z,6.00
2018-06-20T14:23:57.479Z,6.00
2018-06-20T14:26:31.690Z,5.67
2018-06-20T14:29:05.739Z,5.67
2018-06-20T14:31:44.165Z,4.83
2018-06-20T14:36:27.366Z,6.00
2018-06-20T14:39:05.787Z,5.50
2018-06-20T14:41:46.138Z,5.67
2018-06-20T14:44:20.223Z,6.00
2018-06-20T14:46:57.044Z,6.67
2018-06-20T14:49:31.332Z,6.83
2018-06-20T14:52:06.293Z,6.00
2018-06-20T14:54:39.683Z,6.33
2018-06-20T14:57:15.092Z,6.67
2018-06-20T14:59:50.638Z,7.00
2018-06-20T15:02:27.665Z,7.00
2018-06-20T15:05:01.026Z,9.00
2018-06-20T15:07:36.452Z,7.33
2018-06-20T15:10:11.095Z,6.33
2018-06-20T15:12:45.139Z,8.00
2018-06-20T15:15:33.234Z,5.83
2018-06-20T15:18:08.609Z,6.50
2018-06-20T15:20:41.981Z,6.50
2018-06-20T15:23:16.117Z,8.00
2018-06-20T15:25:54.523Z,6.17
2018-06-20T15:28:38.471Z,6.83
2018-06-20T15:31:18.523Z,9.00
2018-06-20T15:33:59.305Z,7.17
2018-06-20T15:36:37.696Z,6.83
2018-06-20T15:39:13.637Z,7.00
2018-06-20T15:41:48.833Z,7.17
2018-06-20T15:44:23.553Z,7.83
2018-06-20T15:46:57.659Z,6.17
2018-06-20T15:49:31.153Z,7.67
2018-06-20T15:52:07.016Z,6.17
2018-06-20T15:54:43.748Z,6.50
2018-06-20T15:57:18.616Z,7.00
2018-06-20T15:59:53.345Z,6.67
2018-06-20T16:02:41.491Z,6.67
2018-06-20T16:05:16.804Z,9.17
2018-06-20T16:07:55.680Z,7.00
2018-06-20T16:10:31.041Z,6.50
2018-06-20T16:13:09.515Z,6.83
2018-06-20T16:15:46.350Z,6.67
2018-06-20T16:21:16.337Z,7.50
2018-06-20T16:24:00.051Z,7.00
2018-06-20T16:29:50.401Z,10.00
2018-06-20T16:32:45.186Z,7.00
2018-06-20T16:35:34.310Z,8.00
2018-06-20T16:38:27.154Z,6.67
2018-06-20T16:41:25.636Z,5.67
2018-06-20T16:46:53.319Z,7.17
2018-06-20T16:49:32.059Z,6.00
2018-06-20T16:52:22.738Z,8.00
2018-06-20T16:55:11.377Z,8.33
2018-06-20T16:57:53.274Z,6.00
2018-06-20T17:00:46.367Z,7.33
2018-06-20T17:03:31.822Z,7.00
2018-06-20T17:06:10.249Z,7.33
2018-06-20T17:08:56.453Z,8.33
2018-06-20T17:20:40.634Z,8.00
2018-06-20T17:23:22.284Z,6.83
2018-06-20T17:29:40.602Z,7.67
2018-06-20T17:35:28.748Z,7.33
2018-06-20T17:38:17.287Z,9.17
2018-06-20T17:41:18.762Z,8.17
2018-06-20T17:44:20.222Z,7.50
2018-06-20T17:47:20.052Z,9.17
2018-06-20T17:50:08.187Z,6.00
2018-06-20T17:52:51.014Z,8.00
2018-06-20T17:55:37.505Z,6.83
2018-06-20T17:58:22.581Z,8.17
2018-06-20T18:04:29.653Z,8.67
2018-06-20T18:10:25.237Z,7.00
2018-06-20T18:13:25.306Z,8.17
2018-06-20T18:16:07.827Z,7.67
2018-06-20T18:18:56.264Z,8.50
2018-06-20T18:21:39.225Z,8.20
2018-06-20T18:24:53.693Z,8.67
2018-06-20T18:29:17.370Z,9.43
2018-06-20T18:36:16.801Z,10.33
2018-06-20T18:39:07.663Z,9.00
2018-06-20T18:42:36.065Z,11.75
2018-06-20T18:45:25.854Z,12.14
2018-06-20T18:48:18.332Z,9.57
2018-06-20T18:51:13.194Z,10.29
2018-06-20T18:54:01.638Z,9.17
2018-06-20T18:56:50.774Z,9.00
2018-06-20T18:59:48.760Z,9.80
2018-06-20T19:05:30.398Z,9.71
2018-06-20T19:08:24.873Z,10.00
2018-06-20T19:11:12.917Z,10.00
2018-06-20T19:17:04.403Z,8.67
2018-06-20T19:19:57.826Z,7.83
2018-06-20T19:22:50.225Z,11.60
2018-06-20T19:25:45.068Z,12.00
2018-06-20T19:28:32.579Z,9.80
2018-06-20T19:31:28.378Z,10.50
2018-06-20T19:34:33.962Z,11.00
2018-06-20T19:37:27.294Z,13.00
2018-06-20T19:40:14.080Z,11.57
2018-06-20T19:43:23.165Z,10.00
2018-06-20T19:46:09.654Z,12.33
2018-06-20T19:49:11.347Z,10.43
2018-06-20T19:52:18.213Z,10.33
2018-06-20T19:55:13.497Z,12.33
2018-06-20T20:00:44.593Z,12.20
2018-06-20T20:03:37.514Z,11.20
2018-06-20T20:09:30.399Z,12.80
2018-06-20T20:12:20.286Z,10.00
2018-06-20T20:15:16.985Z,9.86
2018-06-20T20:23:56.146Z,11.00
2018-06-20T20:26:44.879Z,12.25
2018-06-20T20:29:28.198Z,12.80
2018-06-20T20:32:26.333Z,11.60
2018-06-20T20:35:34.710Z,11.00
2018-06-20T20:39:11.178Z,11.00
2018-06-20T20:45:07.350Z,11.40
2018-06-20T20:47:58.010Z,14.33
2018-06-20T20:50:47.231Z,12.00
2018-06-20T20:53:46.250Z,12.67
2018-06-20T20:56:57.749Z,10.33
2018-06-20T20:59:50.617Z,12.33
2018-06-20T21:02:38.785Z,12.67
2018-06-20T21:05:40.576Z,10.00
2018-06-20T21:08:43.353Z,11.00
2018-06-20T21:11:25.569Z,15.00
2018-06-20T21:14:14.431Z,10.00
2018-06-20T21:17:01.756Z,12.00
2018-06-20T21:20:11.348Z,10.86
2018-06-20T21:22:47.691Z,9.20
2018-06-20T21:25:23.317Z,10.80
2018-06-20T21:28:07.577Z,10.80
2018-06-20T21:30:51.342Z,9.33
2018-06-20T21:36:32.379Z,12.40
2018-06-20T21:39:24.966Z,11.67
2018-06-20T21:42:07.656Z,10.60
2018-06-20T21:48:12.481Z,9.60
2018-06-20T21:50:53.801Z,12.00
2018-06-20T21:53:33.800Z,10.00
2018-06-20T21:56:19.516Z,9.40
2018-06-20T21:59:00.182Z,8.40
2018-06-20T22:02:09.491Z,9.00
2018-06-20T22:05:00.535Z,11.14
2018-06-20T22:07:42.724Z,10.80
2018-06-20T22:10:23.855Z,10.29
2018-06-20T22:16:38.388Z,9.00
2018-06-20T22:19:36.393Z,9.00
2018-06-20T22:25:23.767Z,9.20
2018-06-20T22:28:06.776Z,10.14
2018-06-20T22:30:50.256Z,8.40
2018-06-20T22:36:20.783Z,8.80
2018-06-20T22:38:57.400Z,10.00
2018-06-20T22:41:43.722Z,13.00
2018-06-20T22:44:28.908Z,11.40
2018-06-20T22:47:30.923Z,10.67
2018-06-20T22:50:21.578Z,12.00
2018-06-20T22:53:04.895Z,14.60
2018-06-20T22:59:15.740Z,9.60
2018-06-20T23:01:55.371Z,11.00
2018-06-20T23:04:41.556Z,12.33
2018-06-20T23:07:32.710Z,11.67
2018-06-20T23:10:17.775Z,12.67
2018-06-20T23:16:22.293Z,12.00
2018-06-20T23:19:12.386Z,11.67
2018-06-20T23:24:40.468Z,13.00
2018-06-20T23:27:32.512Z,11.60
2018-06-20T23:30:22.493Z,11.33
2018-06-20T23:33:05.278Z,10.33
2018-06-20T23:35:57.212Z,10.29
2018-06-20T23:38:42.940Z,11.25
2018-06-20T23:44:29.820Z,10.80
2018-06-20T23:47:13.968Z,10.00
2018-06-20T23:50:03.191Z,12.00
2018-06-20T23:52:46.207Z,10.20
2018-06-20T23:55:45.648Z,10.00
2018-06-20T23:58:27.901Z,10.00
